Time;durP1;ratioP1;P1;durP2;ratioP2;P2;SDS_P1;SDS_P2;PMS_P1;PMS_P2;Temp;Humidity;BMP_temperature;BMP_pressure;BME280_temperature;BME280_humidity;BME280_pressure;Samples;Min_cycle;Max_cycle;Signal;HPM_P1;HPM_P2
2022/04/15 00:01:38;;;;;;;60.60;52.60;;;28.50;99.90;;;;;;4212999;28;20111;-70
2022/04/15 00:03:44;;;;;;;61.63;52.70;;;28.60;99.90;;;;;;4213282;28;20579;-73
2022/04/15 00:06:15;;;;;;;59.60;53.20;;;28.60;99.90;;;;;;4161595;28;20099;-71
2022/04/15 00:08:23;;;;;;;58.25;50.78;;;28.60;99.90;;;;;;4161570;28;20439;-71
2022/04/15 00:10:29;;;;;;;57.47;51.17;;;28.60;99.90;;;;;;4161025;28;20091;-71
2022/04/15 00:12:39;;;;;;;59.00;52.75;;;28.70;99.90;;;;;;4127005;28;20154;-71
2022/04/15 00:14:59;;;;;;;;;;;;;;;;;;;;;
2022/04/15 00:17:19;;;;;;;61.75;54.28;;;28.70;99.90;;;;;;4165440;28;20048;-72
2022/04/15 00:19:28;;;;;;;60.42;53.95;;;28.80;99.90;;;;;;4175915;28;20361;-71
2022/04/15 00:21:33;;;;;;;58.35;52.00;;;28.80;99.90;;;;;;4179813;28;20069;-72
2022/04/15 00:23:38;;;;;;;63.40;55.42;;;28.80;99.90;;;;;;4179548;28;20083;-71
2022/04/15 00:25:45;;;;;;;62.63;55.60;;;28.90;99.90;;;;;;4163037;28;20088;-68
2022/04/15 00:27:50;;;;;;;63.20;55.28;;;28.90;99.90;;;;;;4179468;28;20041;-71
2022/04/15 00:29:56;;;;;;;58.40;52.05;;;28.90;99.90;;;;;;4179852;28;20044;-72
2022/04/15 00:32:09;;;;;;;59.67;53.40;;;29.00;99.90;;;;;;4163747;28;20057;-71
2022/04/15 00:34:19;;;;;;;59.33;52.90;;;29.00;99.90;;;;;;4178242;28;20427;-72
2022/04/15 00:36:24;;;;;;;57.30;51.13;;;29.00;99.90;;;;;;4179159;28;20040;-71
2022/04/15 00:38:36;;;;;;;56.65;50.45;;;29.00;99.90;;;;;;4180211;28;20037;-71
2022/04/15 00:40:41;;;;;;;58.30;51.70;;;29.10;99.90;;;;;;4180049;28;20236;-70
2022/04/15 00:42:47;;;;;;;55.20;49.13;;;29.10;99.90;;;;;;4179831;28;20063;-71
2022/04/15 00:45:00;;;;;;;55.75;47.95;;;29.10;99.90;;;;;;4179762;28;20053;-72
2022/04/15 00:47:19;;;;;;;58.50;49.35;;;29.10;99.90;;;;;;4168577;28;20045;-70
2022/04/15 00:49:25;;;;;;;54.78;47.85;;;29.20;99.70;;;;;;4180483;28;20798;-70
2022/04/15 00:51:36;;;;;;;53.05;47.45;;;29.20;99.70;;;;;;4213872;28;20518;-71
2022/04/15 00:53:46;;;;;;;53.10;47.40;;;29.20;99.70;;;;;;4213918;28;20046;-72
2022/04/15 00:55:53;;;;;;;58.25;47.05;;;29.20;99.60;;;;;;4214802;28;20036;-71
2022/04/15 00:58:04;;;;;;;54.33;48.45;;;29.30;99.80;;;;;;4162474;28;20057;-71
2022/04/15 01:00:18;;;;;;;54.10;48.30;;;29.30;99.70;;;;;;4214943;28;20161;-70
2022/04/15 01:02:29;;;;;;;54.95;47.63;;;29.30;99.70;;;;;;4215319;28;20068;-69
2022/04/15 01:04:36;;;;;;;53.35;46.70;;;29.30;99.60;;;;;;4215086;28;20040;-69
2022/04/15 01:06:41;;;;;;;57.58;47.30;;;29.40;99.60;;;;;;4210850;28;20063;-69
2022/04/15 01:08:46;;;;;;;55.53;47.53;;;29.40;99.60;;;;;;4213812;28;20039;-72
2022/04/15 01:10:58;;;;;;;50.58;43.83;;;29.40;99.40;;;;;;4213512;28;20043;-71
2022/04/15 01:13:06;;;;;;;53.17;45.13;;;29.50;99.30;;;;;;4213009;28;20520;-72
2022/04/15 01:15:27;;;;;;;50.67;45.25;;;29.50;99.30;;;;;;4211951;28;20039;-70
2022/04/15 01:17:38;;;;;;;51.50;45.15;;;29.50;99.20;;;;;;4213538;28;20059;-71
2022/04/15 01:19:44;;;;;;;52.47;44.90;;;29.50;99.20;;;;;;4213745;28;20094;-70
2022/04/15 01:21:50;;;;;;;52.20;45.88;;;29.60;99.20;;;;;;4214918;28;20036;-70
2022/04/15 01:24:00;;;;;;;51.28;44.60;;;29.60;99.10;;;;;;4180438;28;20051;-70
2022/04/15 01:26:06;;;;;;;50.85;45.28;;;29.60;99.20;;;;;;4213166;28;20161;-71
2022/04/15 01:28:16;;;;;;;50.97;44.67;;;29.60;99.10;;;;;;4213081;28;20058;-71
2022/04/15 01:30:31;;;;;;;51.22;45.63;;;29.70;99.10;;;;;;4213824;28;20040;-70
2022/04/15 01:32:38;;;;;;;52.45;45.30;;;29.70;99.10;;;;;;4214786;28;20047;-71
2022/04/15 01:34:43;;;;;;;56.42;46.60;;;29.60;99.10;;;;;;4211917;28;20701;-71
2022/04/15 01:36:53;;;;;;;49.80;44.17;;;29.70;99.10;;;;;;4214712;28;20071;-71
2022/04/15 01:39:05;;;;;;;50.72;44.35;;;29.70;99.10;;;;;;4212116;28;20066;-70
2022/04/15 01:41:15;;;;;;;50.83;45.35;;;29.70;99.10;;;;;;4192381;28;20058;-70
2022/04/15 01:43:22;;;;;;;51.70;46.10;;;29.70;99.10;;;;;;4191997;28;20028;-71
2022/04/15 01:45:28;;;;;;;53.80;47.85;;;29.70;99.10;;;;;;4177011;28;20067;-71
2022/04/15 01:47:35;;;;;;;53.65;47.53;;;29.70;99.00;;;;;;4194827;28;20186;-70
2022/04/15 01:49:44;;;;;;;58.83;48.05;;;29.80;99.20;;;;;;4178925;28;20049;-70
2022/04/15 01:51:52;;;;;;;53.22;46.42;;;29.80;99.00;;;;;;4194015;28;20048;-70
2022/04/15 01:53:57;;;;;;;51.60;46.13;;;29.80;98.90;;;;;;4193318;28;20064;-72
2022/04/15 01:56:05;;;;;;;58.40;49.10;;;29.90;98.80;;;;;;4195176;28;20048;-72
2022/04/15 01:58:11;;;;;;;51.80;46.05;;;29.90;98.80;;;;;;4195432;28;20052;-72
2022/04/15 02:00:18;;;;;;;49.58;44.38;;;30.00;98.70;;;;;;4194598;28;20143;-71
2022/04/15 02:02:26;;;;;;;53.22;46.60;;;30.10;98.60;;;;;;4195411;28;20049;-71
2022/04/15 02:04:35;;;;;;;53.63;47.30;;;30.20;98.50;;;;;;4195122;28;20117;-71
2022/04/15 02:06:40;;;;;;;53.30;46.85;;;30.20;98.40;;;;;;4193678;28;20052;-72
2022/04/15 02:08:48;;;;;;;60.00;49.83;;;30.20;98.30;;;;;;4195136;28;20093;-72
2022/04/15 02:10:55;;;;;;;54.25;48.15;;;30.30;98.20;;;;;;4194099;28;20076;-70
2022/04/15 02:13:00;;;;;;;62.60;49.97;;;30.40;98.00;;;;;;4208218;28;20040;-71
2022/04/15 02:15:07;;;;;;;54.17;47.67;;;30.40;97.90;;;;;;4212160;28;20044;-70
2022/04/15 02:17:14;;;;;;;50.55;45.08;;;30.40;97.90;;;;;;4211746;28;20051;-70
2022/04/15 02:19:22;;;;;;;50.38;44.30;;;30.40;98.00;;;;;;4214634;28;20089;-70
2022/04/15 02:21:29;;;;;;;53.95;46.67;;;30.40;98.00;;;;;;4211847;28;20077;-73
2022/04/15 02:23:35;;;;;;;49.17;43.92;;;30.50;98.00;;;;;;4211714;28;20120;-72
2022/04/15 02:25:40;;;;;;;49.50;44.08;;;30.50;97.90;;;;;;4211473;28;20068;-72
2022/04/15 02:27:52;;;;;;;49.85;44.35;;;30.50;97.80;;;;;;4209703;28;20051;-71
2022/04/15 02:29:59;;;;;;;51.38;44.83;;;30.50;97.90;;;;;;4211917;28;20067;-70
2022/04/15 02:32:05;;;;;;;46.70;41.67;;;30.50;97.90;;;;;;4210485;28;20044;-71
2022/04/15 02:34:16;;;;;;;47.67;42.63;;;30.60;97.90;;;;;;4212509;28;20064;-71
2022/04/15 02:36:21;;;;;;;46.47;41.47;;;30.70;97.80;;;;;;4213249;28;20058;-70
2022/04/15 02:38:28;;;;;;;46.88;41.78;;;30.70;97.70;;;;;;4212615;28;20055;-70
2022/04/15 02:40:37;;;;;;;50.08;44.78;;;30.80;97.60;;;;;;4212253;28;20052;-71
2022/04/15 02:42:43;;;;;;;48.67;43.40;;;30.80;97.60;;;;;;4211582;28;20071;-71
2022/04/15 02:44:56;;;;;;;52.13;43.67;;;30.80;97.60;;;;;;4212919;28;20559;-71
2022/04/15 02:47:07;;;;;;;48.35;43.35;;;30.90;97.50;;;;;;4176705;28;20099;-73
2022/04/15 02:49:15;;;;;;;47.47;42.33;;;30.90;97.40;;;;;;4212111;28;20052;-71
2022/04/15 02:51:21;;;;;;;49.58;42.83;;;31.00;97.40;;;;;;4210503;28;20082;-71
2022/04/15 02:53:28;;;;;;;46.33;40.95;;;31.00;97.30;;;;;;4212314;28;20032;-69
2022/04/15 02:55:35;;;;;;;46.80;41.83;;;31.00;97.30;;;;;;4212096;28;20076;-70
2022/04/15 02:57:43;;;;;;;67.53;53.75;;;31.00;96.90;;;;;;4211908;28;20161;-70
2022/04/15 02:59:49;;;;;;;76.75;58.40;;;30.80;97.50;;;;;;4193158;28;20052;-70
2022/04/15 03:01:55;;;;;;;67.25;53.60;;;30.80;97.60;;;;;;4211736;28;20048;-68
2022/04/15 03:04:00;;;;;;;59.67;50.70;;;30.90;97.40;;;;;;4211375;28;20047;-70
2022/04/15 03:06:08;;;;;;;51.08;45.55;;;31.10;97.20;;;;;;4196159;28;20048;-71
2022/04/15 03:08:21;;;;;;;;;;;31.20;97.00;;;;;;4212726;28;20449;-72
2022/04/15 03:10:26;;;;;;;45.95;40.95;;;31.30;96.90;;;;;;4212106;28;19928;-72
2022/04/15 03:12:38;;;;;;;44.65;39.70;;;31.50;96.70;;;;;;3295506;28;10000955;-72
2022/04/15 03:14:46;;;;;;;47.08;39.50;;;31.60;96.70;;;;;;4149381;28;20041;-68
2022/04/15 03:16:51;;;;;;;45.38;40.53;;;31.70;96.40;;;;;;4138061;28;20096;-71
2022/04/15 03:19:01;;;;;;;42.85;37.42;;;31.70;96.30;;;;;;4153254;28;20077;-70
2022/04/15 03:21:26;;;;;;;42.85;38.20;;;31.70;96.10;;;;;;4151227;28;20469;-71
2022/04/15 03:23:32;;;;;;;41.30;36.80;;;31.70;96.10;;;;;;3270756;28;10000982;-70
2022/04/15 03:25:39;;;;;;;40.50;36.28;;;31.70;96.20;;;;;;4149505;28;20281;-70
2022/04/15 03:27:46;;;;;;;38.98;33.52;;;31.70;96.40;;;;;;3330758;28;10001426;-70
2022/04/15 03:29:51;;;;;;;39.50;35.47;;;31.70;96.40;;;;;;4136508;28;20045;-71
2022/04/15 03:32:04;;;;;;;40.80;36.08;;;31.80;96.30;;;;;;3152432;28;10001344;-68
2022/04/15 03:34:13;;;;;;;34.38;30.65;;;31.90;96.30;;;;;;3632876;28;10001958;-69
2022/04/15 03:36:18;;;;;;;34.58;30.95;;;31.90;95.10;;;;;;4147645;28;20053;-70
2022/04/15 03:38:23;;;;;;;33.25;29.75;;;32.00;94.90;;;;;;4148804;28;20046;-70
2022/04/15 03:40:28;;;;;;;32.42;29.13;;;32.00;94.50;;;;;;4152819;28;20048;-70
2022/04/15 03:42:46;;;;;;;32.67;28.90;;;32.10;94.30;;;;;;4148667;28;20058;-71
2022/04/15 03:44:55;;;;;;;31.90;28.05;;;32.20;94.10;;;;;;4150568;28;20060;-69
2022/04/15 03:47:02;;;;;;;29.77;26.50;;;32.30;93.70;;;;;;4158657;28;20049;-70
2022/04/15 03:49:07;;;;;;;29.35;26.02;;;32.40;93.10;;;;;;4146121;28;20070;-70
2022/04/15 03:51:15;;;;;;;27.30;24.35;;;32.50;92.00;;;;;;4142685;28;20050;-69
2022/04/15 03:53:22;;;;;;;29.50;26.13;;;32.50;92.20;;;;;;4140417;28;20037;-69
2022/04/15 03:55:29;;;;;;;29.00;24.15;;;32.60;91.80;;;;;;4155384;28;20038;-69
2022/04/15 03:57:36;;;;;;;29.58;25.48;;;32.70;91.80;;;;;;4157676;28;20053;-70
2022/04/15 03:59:44;;;;;;;27.33;24.20;;;32.80;91.50;;;;;;4147216;28;20046;-69
2022/04/15 04:01:49;;;;;;;28.42;24.45;;;32.80;91.10;;;;;;4119283;28;62809;-69
2022/04/15 04:03:59;;;;;;;25.75;23.10;;;32.80;91.40;;;;;;4124216;28;20494;-69
2022/04/15 04:06:06;;;;;;;26.48;22.40;;;32.80;91.10;;;;;;4138328;28;20646;-69
2022/04/15 04:08:11;;;;;;;26.10;23.35;;;33.10;90.20;;;;;;4132036;28;20133;-70
2022/04/15 04:10:19;;;;;;;25.63;23.00;;;33.10;90.10;;;;;;4130470;28;20073;-68
2022/04/15 04:12:30;;;;;;;27.33;23.85;;;33.10;89.80;;;;;;4129962;28;20066;-69
2022/04/15 04:14:35;;;;;;;29.00;23.65;;;33.10;90.00;;;;;;4133771;28;20056;-70
2022/04/15 04:16:50;;;;;;;25.90;23.10;;;33.20;89.40;;;;;;3545902;28;10001442;-69
2022/04/15 04:18:55;;;;;;;25.25;22.65;;;33.30;89.30;;;;;;4154418;28;20056;-69
2022/04/15 04:21:01;;;;;;;27.27;23.25;;;33.30;89.10;;;;;;4154562;28;20050;-69
2022/04/15 04:23:06;;;;;;;26.60;22.67;;;33.30;89.50;;;;;;4157884;28;20057;-68
2022/04/15 04:25:20;;;;;;;26.48;23.73;;;33.30;89.70;;;;;;4152699;28;20053;-68
2022/04/15 04:27:26;;;;;;;25.60;23.02;;;33.30;88.70;;;;;;4153008;28;20057;-68
2022/04/15 04:29:33;;;;;;;26.80;23.98;;;33.40;88.50;;;;;;4158992;28;20069;-69
2022/04/15 04:31:41;;;;;;;28.80;24.23;;;33.40;88.70;;;;;;4158316;28;20508;-68
2022/04/15 04:33:47;;;;;;;27.17;23.98;;;33.50;87.60;;;;;;4158818;28;20500;-68
2022/04/15 04:35:56;;;;;;;29.90;22.90;;;33.50;87.80;;;;;;4151560;28;20108;-68
2022/04/15 04:38:02;;;;;;;27.15;23.30;;;33.50;87.90;;;;;;4142852;28;20659;-69
2022/04/15 04:40:09;;;;;;;25.45;22.75;;;33.50;87.30;;;;;;4142935;28;20046;-68
2022/04/15 04:42:17;;;;;;;27.05;23.40;;;33.50;87.30;;;;;;4143026;28;20141;-69
2022/04/15 04:44:23;;;;;;;27.17;22.38;;;33.70;87.90;;;;;;4141804;28;20845;-68
2022/04/15 04:46:28;;;;;;;26.23;23.45;;;33.70;87.60;;;;;;4148416;28;20781;-68
2022/04/15 04:48:34;;;;;;;26.08;22.73;;;33.70;87.30;;;;;;4158865;28;20123;-68
2022/04/15 04:50:40;;;;;;;24.77;22.08;;;33.90;87.40;;;;;;4158928;28;20085;-69
2022/04/15 04:52:46;;;;;;;28.10;23.40;;;33.90;86.10;;;;;;4158265;28;20049;-68
2022/04/15 04:54:53;;;;;;;26.45;22.15;;;34.00;86.50;;;;;;4159107;28;20057;-68
2022/04/15 04:57:00;;;;;;;25.23;22.10;;;34.00;86.30;;;;;;4156723;28;20361;-68
2022/04/15 04:59:10;;;;;;;24.50;21.90;;;34.10;86.80;;;;;;4158235;28;20053;-68
2022/04/15 05:01:18;;;;;;;24.52;21.77;;;34.10;86.60;;;;;;4159044;28;20056;-69
2022/04/15 05:03:25;;;;;;;26.52;22.30;;;34.20;86.10;;;;;;4154712;28;20045;-69
2022/04/15 05:05:32;;;;;;;26.58;22.88;;;34.20;86.30;;;;;;4157104;28;20124;-69
2022/04/15 05:07:40;;;;;;;24.60;22.05;;;34.20;85.40;;;;;;4153513;28;20067;-68
2022/04/15 05:09:47;;;;;;;24.42;20.75;;;34.20;84.70;;;;;;4149990;28;20087;-68
2022/04/15 05:11:52;;;;;;;25.63;21.95;;;34.20;83.90;;;;;;4157516;28;20077;-68
2022/04/15 05:13:58;;;;;;;25.75;22.00;;;34.30;82.60;;;;;;4158928;28;20403;-68
2022/04/15 05:16:05;;;;;;;26.17;22.58;;;34.30;81.90;;;;;;4140532;28;20067;-68
2022/04/15 05:18:11;;;;;;;23.73;21.30;;;34.40;81.40;;;;;;4146395;28;20041;-68
2022/04/15 05:20:21;;;;;;;25.38;22.08;;;34.40;82.20;;;;;;4142872;28;20050;-68
2022/04/15 05:22:32;;;;;;;23.42;20.33;;;34.40;82.20;;;;;;4141879;28;20060;-68
2022/04/15 05:24:38;;;;;;;23.83;21.17;;;34.40;81.80;;;;;;4156294;28;20045;-68
2022/04/15 05:26:45;;;;;;;23.92;21.48;;;34.50;81.80;;;;;;4137544;28;20054;-68
2022/04/15 05:28:52;;;;;;;23.52;21.23;;;34.60;81.40;;;;;;4151943;28;20071;-68
2022/04/15 05:30:56;;;;;;;24.77;22.25;;;34.60;81.60;;;;;;4156180;28;20041;-69
2022/04/15 05:33:05;;;;;;;24.83;21.52;;;34.60;81.70;;;;;;4146397;28;20046;-68
2022/04/15 05:35:12;;;;;;;25.17;22.55;;;34.60;81.40;;;;;;4141245;28;20108;-67
2022/04/15 05:37:16;;;;;;;25.70;21.48;;;34.60;81.20;;;;;;4139414;28;20108;-69
2022/04/15 05:39:24;;;;;;;27.75;21.85;;;34.70;81.50;;;;;;4152239;28;20898;-69
2022/04/15 05:41:30;;;;;;;24.35;21.45;;;34.70;81.50;;;;;;4171642;28;20060;-68
2022/04/15 05:43:37;;;;;;;26.52;22.02;;;34.80;80.90;;;;;;4156927;28;20439;-68
2022/04/15 05:45:44;;;;;;;29.30;23.95;;;34.90;81.60;;;;;;4163811;28;20131;-68
2022/04/15 05:47:57;;;;;;;26.15;22.88;;;34.80;81.30;;;;;;4140890;28;21172;-68
2022/04/15 05:50:05;;;;;;;28.95;24.13;;;34.90;80.70;;;;;;4152242;28;20082;-69
2022/04/15 05:52:11;;;;;;;25.55;22.40;;;34.90;82.50;;;;;;4149377;28;20053;-68
2022/04/15 05:54:18;;;;;;;26.48;23.27;;;34.90;82.60;;;;;;4172920;28;20068;-68
2022/04/15 05:56:24;;;;;;;27.85;23.25;;;35.00;82.60;;;;;;4158803;28;20484;-68
2022/04/15 05:58:33;;;;;;;24.63;22.13;;;35.00;82.80;;;;;;4108814;28;20085;-68
2022/04/15 06:00:40;;;;;;;26.00;23.20;;;35.00;83.30;;;;;;4149364;28;20844;-68
2022/04/15 06:02:45;;;;;;;26.38;22.90;;;35.00;83.40;;;;;;4149991;28;20124;-68
2022/04/15 06:05:04;;;;;;;23.95;21.55;;;34.90;82.70;;;;;;4148895;28;20519;-69
2022/04/15 06:07:12;;;;;;;25.40;21.67;;;35.00;81.80;;;;;;4163487;28;20049;-68
2022/04/15 06:09:16;;;;;;;26.45;21.42;;;35.00;81.60;;;;;;4156419;28;20041;-68
2022/04/15 06:11:21;;;;;;;24.25;20.77;;;35.00;81.80;;;;;;4142063;28;20054;-69
2022/04/15 06:13:29;;;;;;;23.85;21.40;;;35.00;82.40;;;;;;4145872;28;20052;-68
2022/04/15 06:15:36;;;;;;;27.92;21.10;;;35.10;82.70;;;;;;4163508;28;21451;-68
2022/04/15 06:17:42;;;;;;;26.63;21.98;;;35.20;81.40;;;;;;4148299;28;20060;-69
2022/04/15 06:19:49;;;;;;;26.05;20.50;;;35.20;81.90;;;;;;4155354;28;20046;-69
2022/04/15 06:21:54;;;;;;;24.80;22.33;;;35.30;82.30;;;;;;4141103;28;20045;-68
2022/04/15 06:24:00;;;;;;;23.75;20.52;;;35.20;82.00;;;;;;4144893;28;20049;-69
2022/04/15 06:26:07;;;;;;;23.63;20.83;;;35.20;81.60;;;;;;4146475;28;20092;-69
2022/04/15 06:28:12;;;;;;;25.17;21.10;;;35.20;81.10;;;;;;4137661;28;20210;-69
2022/04/15 06:30:19;;;;;;;25.63;20.92;;;35.30;81.40;;;;;;4146743;28;20056;-69
2022/04/15 06:32:26;;;;;;;23.73;21.17;;;35.30;82.00;;;;;;4146625;28;20763;-68
2022/04/15 06:34:31;;;;;;;23.50;21.10;;;35.40;82.00;;;;;;4148469;28;20373;-68
2022/04/15 06:36:38;;;;;;;23.27;20.35;;;35.50;81.30;;;;;;4151476;28;20057;-70
2022/04/15 06:38:44;;;;;;;23.20;20.88;;;35.50;80.80;;;;;;4147341;28;20045;-69
2022/04/15 06:40:50;;;;;;;24.23;21.63;;;35.50;80.80;;;;;;4144850;28;20661;-68
2022/04/15 06:42:57;;;;;;;25.05;21.67;;;35.60;79.00;;;;;;4148219;28;20088;-68
2022/04/15 06:45:06;;;;;;;23.48;21.08;;;35.60;78.90;;;;;;4148407;28;20050;-69
2022/04/15 06:47:10;;;;;;;25.02;20.80;;;35.50;77.90;;;;;;4147338;28;20048;-68
2022/04/15 06:49:17;;;;;;;22.75;20.25;;;35.50;77.60;;;;;;4147005;28;20052;-68
2022/04/15 06:51:25;;;;;;;22.98;20.10;;;35.60;77.40;;;;;;4142620;28;20084;-67
2022/04/15 06:53:30;;;;;;;25.38;21.00;;;35.60;77.50;;;;;;4140289;28;20149;-68
2022/04/15 06:55:38;;;;;;;24.25;20.83;;;35.60;77.80;;;;;;4142419;28;20053;-68
2022/04/15 06:57:45;;;;;;;23.27;20.45;;;35.60;78.20;;;;;;4139076;28;20069;-68
2022/04/15 06:59:54;;;;;;;24.92;21.65;;;35.60;77.90;;;;;;4139419;28;20141;-68
2022/04/15 07:02:01;;;;;;;24.10;21.70;;;35.70;78.10;;;;;;4141191;28;20927;-68
2022/04/15 07:04:06;;;;;;;24.92;22.42;;;35.70;78.20;;;;;;4139468;28;20045;-67
2022/04/15 07:06:11;;;;;;;25.70;21.67;;;35.70;78.20;;;;;;4139256;28;20674;-68
2022/04/15 07:08:18;;;;;;;22.15;19.85;;;35.70;77.30;;;;;;4141126;28;20385;-68
2022/04/15 07:10:25;;;;;;;21.77;17.70;;;35.80;77.00;;;;;;4139278;28;20054;-67
2022/04/15 07:12:29;;;;;;;20.88;18.73;;;35.90;75.00;;;;;;4140452;28;20045;-68
2022/04/15 07:14:36;;;;;;;19.33;17.25;;;36.00;74.00;;;;;;4139425;28;20038;-68
2022/04/15 07:16:44;;;;;;;19.25;17.27;;;36.10;72.90;;;;;;4141755;28;20042;-68
2022/04/15 07:18:48;;;;;;;19.83;17.40;;;35.90;73.00;;;;;;4144563;28;20917;-68
2022/04/15 07:20:55;;;;;;;19.92;17.75;;;36.00;73.70;;;;;;4143140;28;20145;-68
2022/04/15 07:23:03;;;;;;;19.15;17.25;;;36.10;73.40;;;;;;4146988;28;20050;-68
2022/04/15 07:25:10;;;;;;;20.58;18.38;;;36.20;73.20;;;;;;4135710;28;20069;-69
2022/04/15 07:27:17;;;;;;;20.20;18.10;;;36.30;72.70;;;;;;4142018;28;20049;-68
2022/04/15 07:29:26;;;;;;;22.40;17.55;;;36.30;71.10;;;;;;4141231;28;20037;-69
2022/04/15 07:31:30;;;;;;;19.08;17.10;;;36.30;71.10;;;;;;4142435;28;20153;-69
2022/04/15 07:33:38;;;;;;;20.17;18.05;;;36.30;71.50;;;;;;4146599;28;20054;-69
2022/04/15 07:35:45;;;;;;;20.05;17.98;;;36.30;71.00;;;;;;4151592;28;20104;-70
2022/04/15 07:37:51;;;;;;;19.98;17.20;;;36.30;70.20;;;;;;4147512;28;20034;-69
2022/04/15 07:39:57;;;;;;;20.60;17.40;;;36.30;70.40;;;;;;4147562;28;20049;-69
2022/04/15 07:42:03;;;;;;;20.17;18.05;;;36.30;69.60;;;;;;4147628;28;20064;-69
2022/04/15 07:44:11;;;;;;;19.85;17.77;;;36.40;69.60;;;;;;4153181;28;20069;-68
2022/04/15 07:46:17;;;;;;;19.30;17.45;;;36.40;70.60;;;;;;4162685;28;20065;-69
2022/04/15 07:48:22;;;;;;;19.00;17.02;;;36.40;70.60;;;;;;4164593;28;20056;-69
2022/04/15 07:50:31;;;;;;;19.10;15.85;;;36.40;70.40;;;;;;4179714;28;20056;-69
2022/04/15 07:52:38;;;;;;;18.80;16.90;;;36.30;70.40;;;;;;4163289;28;20046;-67
2022/04/15 07:54:46;;;;;;;19.40;17.30;;;36.40;71.40;;;;;;4148895;28;20042;-69
2022/04/15 07:56:51;;;;;;;20.13;17.98;;;36.40;71.80;;;;;;4145851;28;20106;-68
2022/04/15 07:59:00;;;;;;;21.30;18.50;;;36.40;72.50;;;;;;4115665;28;20058;-69
2022/04/15 08:01:10;;;;;;;19.75;17.92;;;36.40;72.70;;;;;;4148785;28;20548;-69
2022/04/15 08:03:14;;;;;;;20.40;18.40;;;36.40;72.70;;;;;;4148198;28;20088;-69
2022/04/15 08:05:20;;;;;;;22.98;19.48;;;36.40;72.60;;;;;;4163083;28;20037;-68
2022/04/15 08:07:31;;;;;;;21.88;19.50;;;36.50;72.70;;;;;;4155751;28;20038;-68
2022/04/15 08:09:37;;;;;;;22.40;20.00;;;36.30;72.90;;;;;;4160990;28;20041;-70
2022/04/15 08:11:43;;;;;;;22.00;19.63;;;36.20;72.60;;;;;;4162438;28;20045;-71
2022/04/15 08:13:51;;;;;;;22.15;19.98;;;36.30;71.70;;;;;;4175228;28;20049;-70
2022/04/15 08:15:59;;;;;;;22.25;19.88;;;36.30;71.60;;;;;;4168907;28;20124;-69
2022/04/15 08:18:07;;;;;;;24.52;20.33;;;36.30;71.90;;;;;;4160935;28;20052;-69
2022/04/15 08:20:14;;;;;;;23.98;20.63;;;36.30;71.50;;;;;;4161422;28;20053;-70
2022/04/15 08:22:19;;;;;;;23.08;20.60;;;36.40;70.10;;;;;;4162120;28;20140;-69
2022/04/15 08:24:26;;;;;;;23.25;20.75;;;36.40;70.80;;;;;;4160652;28;20045;-70
2022/04/15 08:26:34;;;;;;;22.00;19.63;;;36.40;70.80;;;;;;4160235;28;20141;-69
2022/04/15 08:28:40;;;;;;;23.13;19.60;;;36.40;70.90;;;;;;4163035;28;20077;-70
2022/04/15 08:30:46;;;;;;;21.85;19.48;;;36.40;70.60;;;;;;4163011;28;20064;-69
2022/04/15 08:32:52;;;;;;;21.80;19.55;;;36.30;70.70;;;;;;4161819;28;20048;-70
2022/04/15 08:34:58;;;;;;;23.08;20.25;;;36.30;70.60;;;;;;4151572;28;20709;-69
2022/04/15 08:37:04;;;;;;;22.88;20.48;;;36.40;71.10;;;;;;4159217;28;20049;-69
2022/04/15 08:39:12;;;;;;;22.25;19.88;;;36.30;71.60;;;;;;4159507;28;20151;-68
2022/04/15 08:41:17;;;;;;;21.42;19.27;;;36.30;72.00;;;;;;4158886;28;20124;-69
2022/04/15 08:43:25;;;;;;;20.45;18.27;;;36.30;72.10;;;;;;4161831;28;20051;-68
2022/04/15 08:45:33;;;;;;;24.33;19.67;;;36.30;72.00;;;;;;4162383;28;20045;-68
2022/04/15 08:47:44;;;;;;;21.38;18.88;;;36.30;71.40;;;;;;4168093;28;20091;-69
2022/04/15 08:49:49;;;;;;;19.77;17.73;;;36.30;71.10;;;;;;4168287;28;20834;-69
2022/04/15 08:51:54;;;;;;;20.45;18.35;;;36.20;71.00;;;;;;4170715;28;20060;-68
2022/04/15 08:54:00;;;;;;;20.80;18.70;;;36.20;71.70;;;;;;4169343;28;20033;-69
2022/04/15 08:56:07;;;;;;;21.70;19.40;;;36.20;72.60;;;;;;4166907;28;20049;-70
2022/04/15 08:58:15;;;;;;;23.38;19.65;;;36.20;72.10;;;;;;4168879;28;20136;-72
2022/04/15 09:00:25;;;;;;;21.70;19.50;;;36.20;73.00;;;;;;4153301;28;20456;-69
2022/04/15 09:02:37;;;;;;;23.35;19.67;;;36.20;72.90;;;;;;4160433;28;20140;-69
2022/04/15 09:04:48;;;;;;;23.15;20.75;;;36.20;73.10;;;;;;4158311;28;20575;-69
2022/04/15 09:06:58;;;;;;;27.05;20.30;;;36.20;72.70;;;;;;4169689;28;20103;-69
2022/04/15 09:09:08;;;;;;;27.57;20.03;;;36.20;72.40;;;;;;4162416;28;20049;-71
2022/04/15 09:11:15;;;;;;;22.98;20.67;;;36.20;72.50;;;;;;4161075;28;20037;-70
2022/04/15 09:13:21;;;;;;;21.48;19.33;;;36.20;72.60;;;;;;4169342;28;20052;-70
2022/04/15 09:15:28;;;;;;;23.75;19.80;;;36.20;72.90;;;;;;4170156;28;20052;-70
2022/04/15 09:17:38;;;;;;;22.52;20.08;;;36.20;73.30;;;;;;4162044;28;20041;-70
2022/04/15 09:19:43;;;;;;;21.38;19.17;;;36.20;73.30;;;;;;4154685;28;20084;-71
2022/04/15 09:21:55;;;;;;;22.15;19.85;;;36.20;73.30;;;;;;4164313;28;20052;-70
2022/04/15 09:24:01;;;;;;;21.58;19.58;;;36.10;73.30;;;;;;4164007;28;20045;-71
2022/04/15 09:26:07;;;;;;;23.05;20.77;;;36.10;73.60;;;;;;4176206;28;20089;-71
2022/04/15 09:28:14;;;;;;;23.08;20.60;;;36.10;73.90;;;;;;4175051;28;20040;-71
2022/04/15 09:30:32;;;;;;;23.33;20.88;;;36.10;74.20;;;;;;4172153;28;20045;-70
2022/04/15 09:32:41;;;;;;;22.88;20.42;;;36.00;74.60;;;;;;4177048;28;20033;-71
2022/04/15 09:34:59;;;;;;;23.20;20.77;;;36.10;75.00;;;;;;4177230;28;20033;-70
2022/04/15 09:37:11;;;;;;;23.38;21.08;;;36.00;74.90;;;;;;4161476;28;20049;-69
2022/04/15 09:39:23;;;;;;;22.77;20.65;;;36.00;74.90;;;;;;4163148;28;20087;-70
2022/04/15 09:41:30;;;;;;;21.80;19.58;;;36.00;74.70;;;;;;4160529;28;20556;-70
2022/04/15 09:43:46;;;;;;;23.52;20.30;;;36.00;75.00;;;;;;4175523;28;20058;-71
2022/04/15 09:45:51;;;;;;;23.27;20.40;;;36.00;75.20;;;;;;4175369;28;20032;-71
2022/04/15 09:48:03;;;;;;;23.20;20.70;;;35.90;75.40;;;;;;4169137;28;20045;-70
2022/04/15 09:50:23;;;;;;;;;;;35.90;75.50;;;;;;4161331;28;20049;-70
2022/04/15 09:52:28;;;;;;;23.63;21.00;;;35.90;75.80;;;;;;4164890;28;19920;-69
2022/04/15 09:54:35;;;;;;;24.77;21.42;;;35.90;76.00;;;;;;4135897;28;20817;-70
2022/04/15 09:56:43;;;;;;;24.88;21.17;;;35.80;76.30;;;;;;4147313;28;20051;-70
2022/04/15 09:58:48;;;;;;;24.23;20.83;;;35.80;76.40;;;;;;4144343;28;20069;-70
2022/04/15 10:00:53;;;;;;;24.90;20.88;;;35.80;75.60;;;;;;4143247;28;20122;-69
2022/04/15 10:03:03;;;;;;;23.17;20.73;;;35.70;74.40;;;;;;4149445;28;20413;-70
2022/04/15 10:05:09;;;;;;;23.02;20.60;;;35.70;74.80;;;;;;4152033;28;20058;-69
2022/04/15 10:07:18;;;;;;;24.27;21.67;;;35.70;75.10;;;;;;4155190;28;20104;-71
2022/04/15 10:09:25;;;;;;;24.70;21.45;;;35.60;75.30;;;;;;4154768;28;20053;-71
2022/04/15 10:11:35;;;;;;;25.65;21.83;;;35.60;75.40;;;;;;4161886;28;20584;-69
2022/04/15 10:13:46;;;;;;;22.65;20.38;;;35.60;75.80;;;;;;4162347;28;20197;-70
2022/04/15 10:15:54;;;;;;;23.85;21.45;;;35.60;76.00;;;;;;4163892;28;20627;-69
2022/04/15 10:18:01;;;;;;;23.63;21.23;;;35.50;76.20;;;;;;4163871;28;20053;-70
2022/04/15 10:20:08;;;;;;;23.42;21.05;;;35.50;76.30;;;;;;4163989;28;20045;-70
2022/04/15 10:22:15;;;;;;;24.42;21.83;;;35.40;76.70;;;;;;4160983;28;20045;-69
2022/04/15 10:24:24;;;;;;;27.25;22.33;;;35.40;77.00;;;;;;4162214;28;20084;-70
2022/04/15 10:26:41;;;;;;;23.17;20.48;;;35.40;77.60;;;;;;4144850;28;20472;-70
2022/04/15 10:28:48;;;;;;;25.55;22.38;;;35.40;77.80;;;;;;4163036;28;20108;-70
2022/04/15 10:31:11;;;;;;;29.50;21.38;;;35.30;78.00;;;;;;4163378;28;20104;-69
2022/04/15 10:33:32;;;;;;;23.77;21.15;;;35.30;78.20;;;;;;4176177;28;20100;-70
2022/04/15 10:35:40;;;;;;;23.60;21.08;;;35.30;78.40;;;;;;4161736;28;20055;-71
2022/04/15 10:38:07;;;;;;;32.55;24.08;;;35.20;78.60;;;;;;4162964;28;20137;-71
2022/04/15 10:40:33;;;;;;;27.35;24.40;;;35.10;79.20;;;;;;4130263;28;20042;-71
2022/04/15 10:42:40;;;;;;;27.02;24.15;;;35.10;79.00;;;;;;4154438;28;20115;-70
2022/04/15 10:44:45;;;;;;;27.38;24.48;;;35.00;78.80;;;;;;4158500;28;20795;-72
2022/04/15 10:46:50;;;;;;;25.73;23.13;;;35.00;78.80;;;;;;4162281;28;20115;-70
2022/04/15 10:49:00;;;;;;;25.67;23.00;;;35.00;78.50;;;;;;4161246;28;20049;-71
2022/04/15 10:51:27;;;;;;;36.88;32.58;;;35.00;78.20;;;;;;4144319;28;20069;-71